BHE1012 ZUCK-ZLDH
Flight info
| Callsign | BHE1012 |
|---|---|
| Flight time | N/A |
| Altitude | 38100 |
| Route | URGEG1Z URGEG W80 WFX W179 OMBON W195 IDOPA W197 ANDIM B215 TODOD TODOD9 |
| Aircraft | B737/M-SDE2E3FGHIRWXY/LB1 |
Departure
| Time | 2026-04-18 10:25 |
|---|---|
| Airport | Chongqing Jiangbei International Airport (ZUCK) |
Arrival
| Time | N/A |
|---|---|
| Airport | Dunhuang Mogao International Airport (ZLDH) |
| Time | Latitude | Longitude | Altitude | Speed | Heading |
|---|---|---|---|---|---|
| 2026-04-18 10:14 | 29.71695 | 106.65739 | 1343 ft | 0 kts | 286° |
| 2026-04-18 10:19 | 29.71695 | 106.65741 | 1343 ft | 3 kts | 286° |
| 2026-04-18 10:20 | 29.71687 | 106.65770 | 1344 ft | 4 kts | 286° |
| 2026-04-18 10:20 | 29.71678 | 106.65797 | 1340 ft | 4 kts | 314° |
| 2026-04-18 10:20 | 29.71656 | 106.65808 | 1341 ft | 4 kts | 12° |
| 2026-04-18 10:20 | 29.71636 | 106.65801 | 1344 ft | 4 kts | 15° |
| 2026-04-18 10:21 | 29.71630 | 106.65799 | 1343 ft | 1 kts | 15° |
| 2026-04-18 10:21 | 29.71630 | 106.65800 | 1343 ft | 0 kts | 15° |
| 2026-04-18 10:22 | 29.71640 | 106.65802 | 1346 ft | 5 kts | 14° |
| 2026-04-18 10:23 | 29.71652 | 106.65806 | 1341 ft | 3 kts | 17° |
| 2026-04-18 10:23 | 29.71671 | 106.65849 | 1338 ft | 10 kts | 93° |
| 2026-04-18 10:23 | 29.71645 | 106.65946 | 1340 ft | 14 kts | 108° |
| 2026-04-18 10:23 | 29.71612 | 106.66060 | 1335 ft | 15 kts | 108° |
| 2026-04-18 10:24 | 29.71591 | 106.66165 | 1335 ft | 11 kts | 82° |
| 2026-04-18 10:24 | 29.71642 | 106.66214 | 1335 ft | 9 kts | 17° |
| 2026-04-18 10:24 | 29.71805 | 106.66270 | 1333 ft | 57 kts | 17° |
| 2026-04-18 10:24 | 29.72440 | 106.66491 | 1329 ft | 128 kts | 17° |
| 2026-04-18 10:25 | 29.73432 | 106.66842 | 1509 ft | 163 kts | 16° |
| 2026-04-18 10:25 | 29.74517 | 106.67218 | 2275 ft | 164 kts | 14° |
| 2026-04-18 10:25 | 29.75613 | 106.67583 | 3041 ft | 165 kts | 14° |
| 2026-04-18 10:25 | 29.76722 | 106.67977 | 3727 ft | 168 kts | 24° |
| 2026-04-18 10:26 | 29.77725 | 106.68672 | 4433 ft | 169 kts | 31° |
| 2026-04-18 10:26 | 29.78748 | 106.69414 | 4960 ft | 184 kts | 31° |
| 2026-04-18 10:26 | 29.79919 | 106.70265 | 5219 ft | 212 kts | 31° |
| 2026-04-18 10:26 | 29.81243 | 106.71225 | 5433 ft | 238 kts | 31° |
| 2026-04-18 10:27 | 29.82733 | 106.72304 | 5689 ft | 267 kts | 31° |
| 2026-04-18 10:27 | 29.84338 | 106.73465 | 6408 ft | 277 kts | 31° |
| 2026-04-18 10:27 | 29.85980 | 106.74653 | 7293 ft | 280 kts | 31° |
| 2026-04-18 10:27 | 29.87641 | 106.75857 | 8230 ft | 284 kts | 31° |
| 2026-04-18 10:28 | 29.89318 | 106.77078 | 9157 ft | 287 kts | 31° |
| 2026-04-18 10:28 | 29.91017 | 106.78315 | 10078 ft | 291 kts | 31° |
| 2026-04-18 10:28 | 29.92765 | 106.79589 | 10653 ft | 309 kts | 31° |
| 2026-04-18 10:28 | 29.94664 | 106.80973 | 10866 ft | 337 kts | 31° |
| 2026-04-18 10:29 | 29.96722 | 106.82473 | 11082 ft | 362 kts | 32° |
| 2026-04-18 10:29 | 29.98892 | 106.84057 | 11603 ft | 374 kts | 32° |
| 2026-04-18 10:29 | 30.01252 | 106.85351 | 12308 ft | 379 kts | 14° |
| 2026-04-18 10:29 | 30.03862 | 106.85590 | 13160 ft | 378 kts | 353° |
| 2026-04-18 10:30 | 30.06388 | 106.84766 | 13980 ft | 380 kts | 334° |
| 2026-04-18 10:30 | 30.08559 | 106.83030 | 14763 ft | 383 kts | 318° |
| 2026-04-18 10:30 | 30.10549 | 106.80957 | 15529 ft | 388 kts | 316° |
| 2026-04-18 10:30 | 30.12531 | 106.78816 | 16265 ft | 392 kts | 316° |
| 2026-04-18 10:31 | 30.14530 | 106.76648 | 16969 ft | 397 kts | 316° |
| 2026-04-18 10:31 | 30.16566 | 106.74454 | 17590 ft | 403 kts | 316° |
| 2026-04-18 10:31 | 30.18641 | 106.72237 | 18183 ft | 408 kts | 317° |
| 2026-04-18 10:31 | 30.20736 | 106.70012 | 18971 ft | 409 kts | 317° |
| 2026-04-18 10:32 | 30.22835 | 106.67790 | 19669 ft | 411 kts | 317° |
| 2026-04-18 10:32 | 30.24962 | 106.65540 | 20243 ft | 417 kts | 317° |
| 2026-04-18 10:32 | 30.27114 | 106.63264 | 20781 ft | 422 kts | 317° |
| 2026-04-18 10:32 | 30.29284 | 106.60966 | 21387 ft | 424 kts | 317° |
| 2026-04-18 10:33 | 30.31469 | 106.58651 | 21982 ft | 427 kts | 317° |
| 2026-04-18 10:33 | 30.33669 | 106.56320 | 22505 ft | 431 kts | 317° |
| 2026-04-18 10:33 | 30.35861 | 106.53994 | 22992 ft | 435 kts | 317° |
| 2026-04-18 10:33 | 30.38098 | 106.51620 | 23478 ft | 438 kts | 317° |
| 2026-04-18 10:34 | 30.40352 | 106.49227 | 23944 ft | 442 kts | 317° |
| 2026-04-18 10:34 | 30.42624 | 106.46814 | 24410 ft | 445 kts | 317° |
| 2026-04-18 10:34 | 30.44912 | 106.44381 | 24866 ft | 448 kts | 317° |
| 2026-04-18 10:34 | 30.47213 | 106.41932 | 25300 ft | 451 kts | 317° |
| 2026-04-18 10:35 | 30.49530 | 106.39465 | 25718 ft | 454 kts | 317° |
| 2026-04-18 10:35 | 30.51863 | 106.36978 | 26117 ft | 456 kts | 317° |
| 2026-04-18 10:35 | 30.54205 | 106.34482 | 26488 ft | 459 kts | 317° |
| 2026-04-18 10:35 | 30.56531 | 106.31927 | 26844 ft | 462 kts | 311° |
| 2026-04-18 10:36 | 30.58294 | 106.28817 | 27161 ft | 464 kts | 293° |
| 2026-04-18 10:36 | 30.59243 | 106.25239 | 27552 ft | 465 kts | 279° |
| 2026-04-18 10:36 | 30.59349 | 106.21499 | 27883 ft | 467 kts | 265° |
| 2026-04-18 10:36 | 30.58980 | 106.17749 | 28208 ft | 469 kts | 263° |
| 2026-04-18 10:37 | 30.58542 | 106.13986 | 28486 ft | 472 kts | 262° |
| 2026-04-18 10:37 | 30.58092 | 106.10205 | 28777 ft | 474 kts | 262° |
| 2026-04-18 10:37 | 30.57655 | 106.06413 | 29159 ft | 473 kts | 263° |
| 2026-04-18 10:37 | 30.57240 | 106.02638 | 29614 ft | 471 kts | 263° |
| 2026-04-18 10:38 | 30.56839 | 105.98873 | 30058 ft | 469 kts | 263° |
| 2026-04-18 10:38 | 30.56448 | 105.95124 | 30465 ft | 469 kts | 263° |
| 2026-04-18 10:38 | 30.56057 | 105.91365 | 30856 ft | 468 kts | 263° |
| 2026-04-18 10:38 | 30.55666 | 105.87622 | 31258 ft | 467 kts | 263° |
| 2026-04-18 10:39 | 30.55274 | 105.83884 | 31641 ft | 466 kts | 263° |
| 2026-04-18 10:39 | 30.54880 | 105.80148 | 32007 ft | 466 kts | 263° |
| 2026-04-18 10:39 | 30.54485 | 105.76418 | 32363 ft | 466 kts | 263° |
| 2026-04-18 10:39 | 30.54089 | 105.72693 | 32732 ft | 464 kts | 263° |
| 2026-04-18 10:40 | 30.53704 | 105.68978 | 33079 ft | 464 kts | 263° |
| 2026-04-18 10:40 | 30.53329 | 105.65266 | 33418 ft | 463 kts | 263° |
| 2026-04-18 10:40 | 30.52955 | 105.61563 | 33754 ft | 462 kts | 263° |
| 2026-04-18 10:40 | 30.52579 | 105.57869 | 34075 ft | 461 kts | 263° |
| 2026-04-18 10:41 | 30.52199 | 105.54225 | 34381 ft | 461 kts | 263° |
| 2026-04-18 10:41 | 30.51801 | 105.50541 | 34669 ft | 460 kts | 263° |
| 2026-04-18 10:41 | 30.51398 | 105.46859 | 34962 ft | 460 kts | 263° |
| 2026-04-18 10:41 | 30.50996 | 105.43181 | 35239 ft | 460 kts | 263° |
| 2026-04-18 10:42 | 30.50596 | 105.39509 | 35528 ft | 459 kts | 263° |
| 2026-04-18 10:42 | 30.50196 | 105.35843 | 35807 ft | 458 kts | 263° |
| 2026-04-18 10:42 | 30.49854 | 105.32174 | 36070 ft | 457 kts | 267° |
| 2026-04-18 10:42 | 30.49910 | 105.28492 | 36290 ft | 458 kts | 276° |
| 2026-04-18 10:43 | 30.50316 | 105.24838 | 36531 ft | 457 kts | 278° |
| 2026-04-18 10:43 | 30.50770 | 105.21188 | 36752 ft | 457 kts | 278° |
| 2026-04-18 10:43 | 30.51231 | 105.17534 | 36974 ft | 457 kts | 278° |
| 2026-04-18 10:43 | 30.51681 | 105.13885 | 37204 ft | 457 kts | 278° |
| 2026-04-18 10:44 | 30.52114 | 105.10241 | 37493 ft | 455 kts | 277° |
| 2026-04-18 10:44 | 30.52535 | 105.06613 | 37791 ft | 453 kts | 277° |
| 2026-04-18 10:44 | 30.52948 | 105.02993 | 38058 ft | 452 kts | 277° |
| 2026-04-18 10:45 | 30.53769 | 104.95710 | 38099 ft | 456 kts | 277° |
| 2026-04-18 10:45 | 30.54587 | 104.88433 | 38095 ft | 453 kts | 277° |
| 2026-04-18 10:46 | 30.55397 | 104.81208 | 38104 ft | 450 kts | 277° |
| 2026-04-18 10:46 | 30.56199 | 104.74017 | 38099 ft | 449 kts | 277° |
| 2026-04-18 10:47 | 30.57302 | 104.66911 | 38104 ft | 447 kts | 283° |
| 2026-04-18 10:47 | 30.58699 | 104.59920 | 38106 ft | 448 kts | 282° |
| 2026-04-18 10:48 | 30.60369 | 104.52968 | 38082 ft | 450 kts | 299° |
| 2026-04-18 10:48 | 30.62216 | 104.50054 | 38111 ft | 450 kts | 315° |
| 2026-04-18 10:48 | 30.64668 | 104.47796 | 38103 ft | 452 kts | 330° |
| 2026-04-18 10:48 | 30.67557 | 104.46358 | 38123 ft | 453 kts | 341° |
| 2026-04-18 10:49 | 30.70570 | 104.45232 | 38106 ft | 455 kts | 342° |
| 2026-04-18 10:49 | 30.76647 | 104.43049 | 38103 ft | 459 kts | 342° |
| 2026-04-18 10:50 | 30.82728 | 104.40737 | 38098 ft | 461 kts | 341° |
| 2026-04-18 10:50 | 30.88936 | 104.38882 | 38091 ft | 462 kts | 354° |
| 2026-04-18 10:51 | 30.95361 | 104.38646 | 38101 ft | 462 kts | 359° |
| 2026-04-18 10:51 | 31.01792 | 104.38583 | 38098 ft | 462 kts | 359° |
| 2026-04-18 10:52 | 31.08211 | 104.38451 | 38098 ft | 461 kts | 358° |
| 2026-04-18 10:52 | 31.14619 | 104.38279 | 38101 ft | 460 kts | 358° |
| 2026-04-18 10:53 | 31.21010 | 104.38106 | 38099 ft | 459 kts | 358° |
| 2026-04-18 10:53 | 31.27392 | 104.37909 | 38099 ft | 458 kts | 357° |
| 2026-04-18 10:54 | 31.33755 | 104.37541 | 38101 ft | 458 kts | 356° |
| 2026-04-18 10:54 | 31.40109 | 104.37140 | 38100 ft | 457 kts | 356° |
| 2026-04-18 10:55 | 31.46462 | 104.36760 | 38101 ft | 457 kts | 356° |
| 2026-04-18 10:55 | 31.52820 | 104.36392 | 38101 ft | 458 kts | 356° |
| 2026-04-18 10:56 | 31.59144 | 104.36026 | 38104 ft | 458 kts | 356° |
| 2026-04-18 10:56 | 31.65514 | 104.35657 | 38095 ft | 459 kts | 356° |
| 2026-04-18 10:57 | 31.71904 | 104.35285 | 38095 ft | 461 kts | 356° |
| 2026-04-18 10:57 | 31.78332 | 104.34914 | 38115 ft | 463 kts | 356° |
| 2026-04-18 10:58 | 31.83741 | 104.34632 | 38108 ft | 466 kts | 357° |
| 2026-04-18 10:58 | 31.90184 | 104.34311 | 38100 ft | 467 kts | 357° |
| 2026-04-18 10:59 | 31.96678 | 104.33983 | 38103 ft | 468 kts | 357° |
| 2026-04-18 10:59 | 32.03182 | 104.33650 | 38104 ft | 468 kts | 357° |
| 2026-04-18 11:00 | 32.09699 | 104.33315 | 38094 ft | 469 kts | 357° |
| 2026-04-18 11:00 | 32.16218 | 104.32980 | 38107 ft | 469 kts | 357° |
| 2026-04-18 11:01 | 32.22733 | 104.32644 | 38097 ft | 469 kts | 357° |
| 2026-04-18 11:01 | 32.29250 | 104.32308 | 38086 ft | 469 kts | 357° |
| 2026-04-18 11:02 | 32.39020 | 104.31803 | 38102 ft | 468 kts | 357° |
| 2026-04-18 11:02 | 32.45523 | 104.31471 | 38095 ft | 467 kts | 357° |
| 2026-04-18 11:03 | 32.52006 | 104.31147 | 38103 ft | 466 kts | 357° |
| 2026-04-18 11:03 | 32.58497 | 104.30821 | 38098 ft | 467 kts | 357° |
| 2026-04-18 11:04 | 32.65017 | 104.30503 | 38103 ft | 471 kts | 357° |
| 2026-04-18 11:04 | 32.71578 | 104.30192 | 38111 ft | 472 kts | 357° |
| 2026-04-18 11:05 | 32.78154 | 104.29878 | 38094 ft | 473 kts | 357° |
| 2026-04-18 11:05 | 32.84692 | 104.29563 | 38104 ft | 474 kts | 357° |
| 2026-04-18 11:06 | 32.91281 | 104.29246 | 38102 ft | 474 kts | 357° |
| 2026-04-18 11:06 | 32.97882 | 104.28929 | 38109 ft | 475 kts | 357° |
| 2026-04-18 11:07 | 33.04498 | 104.28610 | 38107 ft | 476 kts | 357° |
| 2026-04-18 11:07 | 33.11110 | 104.28291 | 38105 ft | 475 kts | 357° |
| 2026-04-18 11:08 | 33.17705 | 104.27973 | 38102 ft | 472 kts | 357° |
| 2026-04-18 11:08 | 33.24245 | 104.27656 | 38105 ft | 469 kts | 357° |
| 2026-04-18 11:09 | 33.30749 | 104.27340 | 38100 ft | 467 kts | 356° |
| 2026-04-18 11:09 | 33.37096 | 104.25877 | 38101 ft | 467 kts | 340° |
| 2026-04-18 11:10 | 33.42903 | 104.22373 | 38108 ft | 469 kts | 329° |
| 2026-04-18 11:10 | 33.48522 | 104.18380 | 38106 ft | 471 kts | 329° |
| 2026-04-18 11:11 | 33.54211 | 104.14466 | 38098 ft | 472 kts | 330° |
| 2026-04-18 11:11 | 33.60348 | 104.11671 | 38108 ft | 474 kts | 347° |
| 2026-04-18 11:12 | 33.66929 | 104.10999 | 38106 ft | 476 kts | 359° |
| 2026-04-18 11:12 | 33.73559 | 104.11078 | 38103 ft | 476 kts | 0° |
| 2026-04-18 11:13 | 33.80177 | 104.11169 | 38106 ft | 475 kts | 360° |
| 2026-04-18 11:13 | 33.86743 | 104.11201 | 38106 ft | 474 kts | 359° |
| 2026-04-18 11:14 | 33.93321 | 104.11204 | 38090 ft | 472 kts | 359° |
| 2026-04-18 11:14 | 33.99896 | 104.11200 | 38101 ft | 472 kts | 359° |
| 2026-04-18 11:15 | 34.06472 | 104.11198 | 38110 ft | 472 kts | 359° |
| 2026-04-18 11:15 | 34.13049 | 104.11197 | 38102 ft | 473 kts | 359° |
| 2026-04-18 11:16 | 34.19636 | 104.11197 | 38105 ft | 474 kts | 359° |
| 2026-04-18 11:16 | 34.26231 | 104.11197 | 38106 ft | 474 kts | 359° |
| 2026-04-18 11:17 | 34.32834 | 104.11198 | 38099 ft | 475 kts | 359° |
| 2026-04-18 11:17 | 34.39438 | 104.11198 | 38102 ft | 475 kts | 359° |
| 2026-04-18 11:18 | 34.46047 | 104.11198 | 38098 ft | 475 kts | 359° |
| 2026-04-18 11:18 | 34.52650 | 104.11198 | 38103 ft | 474 kts | 359° |
| 2026-04-18 11:19 | 34.59244 | 104.11198 | 38095 ft | 474 kts | 359° |
| 2026-04-18 11:19 | 34.65847 | 104.11198 | 38100 ft | 474 kts | 359° |
| 2026-04-18 11:20 | 34.72441 | 104.11198 | 38101 ft | 474 kts | 359° |
| 2026-04-18 11:20 | 34.79043 | 104.11199 | 38104 ft | 474 kts | 359° |
| 2026-04-18 11:21 | 34.85643 | 104.11199 | 38101 ft | 475 kts | 359° |
| 2026-04-18 11:21 | 34.92215 | 104.11199 | 38108 ft | 475 kts | 359° |
| 2026-04-18 11:22 | 34.98828 | 104.11199 | 38102 ft | 476 kts | 359° |
| 2026-04-18 11:22 | 35.05435 | 104.11199 | 38104 ft | 475 kts | 359° |
| 2026-04-18 11:23 | 35.12036 | 104.11199 | 38101 ft | 474 kts | 359° |
| 2026-04-18 11:23 | 35.18622 | 104.11199 | 38100 ft | 472 kts | 359° |
| 2026-04-18 11:24 | 35.25189 | 104.11199 | 38098 ft | 471 kts | 359° |
| 2026-04-18 11:24 | 35.31736 | 104.11200 | 38098 ft | 470 kts | 359° |
| 2026-04-18 11:25 | 35.38266 | 104.11200 | 38104 ft | 469 kts | 359° |
| 2026-04-18 11:25 | 35.44795 | 104.11200 | 38099 ft | 469 kts | 359° |
| 2026-04-18 11:26 | 35.51315 | 104.11201 | 38104 ft | 469 kts | 359° |
| 2026-04-18 11:26 | 35.57850 | 104.11219 | 38105 ft | 470 kts | 359° |
| 2026-04-18 11:27 | 35.64395 | 104.11243 | 38098 ft | 471 kts | 359° |
| 2026-04-18 11:27 | 35.70954 | 104.11264 | 38107 ft | 472 kts | 359° |
| 2026-04-18 11:28 | 35.77523 | 104.11284 | 38099 ft | 473 kts | 359° |
| 2026-04-18 11:28 | 35.84098 | 104.11238 | 38103 ft | 472 kts | 356° |
| 2026-04-18 11:29 | 35.90637 | 104.10586 | 38104 ft | 471 kts | 354° |
| 2026-04-18 11:29 | 35.97156 | 104.09789 | 38103 ft | 470 kts | 354° |
| 2026-04-18 11:30 | 36.03655 | 104.09046 | 38098 ft | 468 kts | 354° |
| 2026-04-18 11:30 | 36.10138 | 104.08341 | 38096 ft | 467 kts | 354° |
| 2026-04-18 11:31 | 36.16560 | 104.07645 | 38101 ft | 465 kts | 354° |
| 2026-04-18 11:31 | 36.23004 | 104.06942 | 38103 ft | 464 kts | 354° |
| 2026-04-18 11:32 | 36.29441 | 104.06236 | 38096 ft | 464 kts | 354° |
| 2026-04-18 11:32 | 36.35886 | 104.05527 | 38105 ft | 465 kts | 354° |
| 2026-04-18 11:33 | 36.42338 | 104.04820 | 38104 ft | 466 kts | 354° |
| 2026-04-18 11:33 | 36.48804 | 104.04110 | 38101 ft | 467 kts | 354° |
| 2026-04-18 11:34 | 36.55279 | 104.03397 | 38102 ft | 467 kts | 354° |
| 2026-04-18 11:34 | 36.58459 | 104.02594 | 38079 ft | 466 kts | 338° |
| 2026-04-18 11:34 | 36.61295 | 104.00675 | 38109 ft | 464 kts | 322° |
| 2026-04-18 11:35 | 36.63641 | 103.97927 | 38097 ft | 464 kts | 307° |
| 2026-04-18 11:35 | 36.65365 | 103.94555 | 38122 ft | 463 kts | 298° |
| 2026-04-18 11:35 | 36.68387 | 103.87460 | 38107 ft | 464 kts | 297° |
| 2026-04-18 11:36 | 36.71380 | 103.80316 | 38102 ft | 466 kts | 297° |
| 2026-04-18 11:36 | 36.74414 | 103.73235 | 38100 ft | 467 kts | 298° |
| 2026-04-18 11:37 | 36.77501 | 103.66098 | 38103 ft | 467 kts | 298° |
| 2026-04-18 11:37 | 36.80587 | 103.58959 | 38100 ft | 468 kts | 298° |
| 2026-04-18 11:38 | 36.83673 | 103.51798 | 38100 ft | 468 kts | 298° |
| 2026-04-18 11:38 | 36.86754 | 103.44627 | 38099 ft | 469 kts | 298° |
| 2026-04-18 11:39 | 36.89835 | 103.37439 | 38101 ft | 470 kts | 298° |
| 2026-04-18 11:39 | 36.92917 | 103.30237 | 38103 ft | 470 kts | 298° |
| 2026-04-18 11:40 | 36.96202 | 103.23167 | 38102 ft | 470 kts | 302° |
| 2026-04-18 11:40 | 36.99732 | 103.16280 | 38105 ft | 470 kts | 302° |
| 2026-04-18 11:41 | 37.03260 | 103.09398 | 38097 ft | 469 kts | 302° |
| 2026-04-18 11:41 | 37.06745 | 103.02493 | 38101 ft | 469 kts | 302° |
| 2026-04-18 11:42 | 37.10207 | 102.95577 | 38098 ft | 468 kts | 302° |
| 2026-04-18 11:42 | 37.13661 | 102.88659 | 38100 ft | 468 kts | 302° |
| 2026-04-18 11:43 | 37.17113 | 102.81733 | 38101 ft | 468 kts | 302° |
| 2026-04-18 11:43 | 37.20541 | 102.74845 | 38102 ft | 469 kts | 301° |
| 2026-04-18 11:44 | 37.23991 | 102.67896 | 38102 ft | 470 kts | 301° |
| 2026-04-18 11:44 | 37.27449 | 102.60918 | 38100 ft | 471 kts | 301° |
| 2026-04-18 11:45 | 37.30911 | 102.53916 | 38094 ft | 472 kts | 301° |
| 2026-04-18 11:45 | 37.34369 | 102.46897 | 38108 ft | 472 kts | 300° |
| 2026-04-18 11:46 | 37.36598 | 102.40597 | 38096 ft | 472 kts | 285° |
| 2026-04-18 11:46 | 37.38406 | 102.31291 | 38099 ft | 472 kts | 283° |
| 2026-04-18 11:47 | 37.39672 | 102.24554 | 38102 ft | 472 kts | 283° |
| 2026-04-18 11:47 | 37.41238 | 102.16522 | 38098 ft | 473 kts | 284° |
| 2026-04-18 11:48 | 37.42814 | 102.08535 | 38107 ft | 473 kts | 284° |
| 2026-04-18 11:48 | 37.44386 | 102.00499 | 38090 ft | 473 kts | 283° |
| 2026-04-18 11:49 | 37.45936 | 101.92459 | 38105 ft | 472 kts | 283° |
| 2026-04-18 11:49 | 37.47478 | 101.84421 | 38099 ft | 472 kts | 283° |
| 2026-04-18 11:50 | 37.49017 | 101.76382 | 38110 ft | 472 kts | 283° |
| 2026-04-18 11:50 | 37.50693 | 101.68398 | 38091 ft | 472 kts | 290° |
| 2026-04-18 11:51 | 37.53595 | 101.60992 | 38108 ft | 472 kts | 298° |
| 2026-04-18 11:51 | 37.56779 | 101.53739 | 38092 ft | 473 kts | 298° |
| 2026-04-18 11:52 | 37.59929 | 101.46464 | 38108 ft | 473 kts | 298° |
| 2026-04-18 11:52 | 37.63019 | 101.39203 | 38098 ft | 472 kts | 298° |
| 2026-04-18 11:53 | 37.66110 | 101.31889 | 38098 ft | 472 kts | 297° |
| 2026-04-18 11:53 | 37.69194 | 101.24577 | 38101 ft | 472 kts | 297° |
| 2026-04-18 11:54 | 37.72276 | 101.17258 | 38099 ft | 472 kts | 297° |
| 2026-04-18 11:54 | 37.75356 | 101.09928 | 38098 ft | 472 kts | 297° |
| 2026-04-18 11:55 | 37.78433 | 101.02590 | 38097 ft | 473 kts | 297° |
| 2026-04-18 11:55 | 37.81510 | 100.95234 | 38101 ft | 474 kts | 297° |
| 2026-04-18 11:56 | 37.84629 | 100.87880 | 38100 ft | 474 kts | 299° |
| 2026-04-18 11:56 | 37.87883 | 100.80622 | 38099 ft | 474 kts | 299° |
| 2026-04-18 11:57 | 37.91155 | 100.73370 | 38109 ft | 474 kts | 299° |
| 2026-04-18 11:57 | 37.94407 | 100.66099 | 38101 ft | 474 kts | 299° |
| 2026-04-18 11:58 | 37.97637 | 100.58824 | 38102 ft | 473 kts | 299° |
| 2026-04-18 11:58 | 38.00857 | 100.51544 | 38104 ft | 473 kts | 299° |
| 2026-04-18 11:59 | 38.04068 | 100.44269 | 38103 ft | 472 kts | 299° |
| 2026-04-18 11:59 | 38.07268 | 100.37003 | 38098 ft | 471 kts | 299° |
| 2026-04-18 12:00 | 38.10461 | 100.29740 | 38104 ft | 471 kts | 299° |
| 2026-04-18 12:00 | 38.13646 | 100.22476 | 38098 ft | 471 kts | 298° |
| 2026-04-18 12:01 | 38.18404 | 100.11597 | 38098 ft | 472 kts | 298° |
| 2026-04-18 12:02 | 38.21582 | 100.04308 | 38108 ft | 471 kts | 298° |
| 2026-04-18 12:02 | 38.24702 | 99.97168 | 38204 ft | 436 kts | 295° |
| 2026-04-18 12:02 | 38.26135 | 99.93897 | 38175 ft | 411 kts | 294° |
| 2026-04-18 12:03 | 38.27486 | 99.90797 | 38142 ft | 390 kts | 294° |
| 2026-04-18 12:03 | 38.28768 | 99.87841 | 38170 ft | 372 kts | 293° |
| 2026-04-18 12:03 | 38.29997 | 99.85000 | 38213 ft | 364 kts | 294° |
| 2026-04-18 12:04 | 38.32471 | 99.79233 | 38199 ft | 378 kts | 294° |
| 2026-04-18 12:04 | 38.35034 | 99.73260 | 38217 ft | 390 kts | 294° |
| 2026-04-18 12:05 | 38.37659 | 99.67164 | 38205 ft | 393 kts | 294° |
| 2026-04-18 12:05 | 38.40290 | 99.61050 | 38188 ft | 394 kts | 294° |
| 2026-04-18 12:06 | 38.42914 | 99.54943 | 38210 ft | 392 kts | 294° |
| 2026-04-18 12:06 | 38.45528 | 99.48845 | 38190 ft | 391 kts | 294° |
| 2026-04-18 12:07 | 38.48126 | 99.42769 | 38186 ft | 388 kts | 294° |
| 2026-04-18 12:07 | 38.50692 | 99.36756 | 38178 ft | 389 kts | 294° |
| 2026-04-18 12:08 | 38.53270 | 99.30702 | 38201 ft | 388 kts | 293° |
| 2026-04-18 12:08 | 38.55842 | 99.24645 | 38167 ft | 387 kts | 294° |
| 2026-04-18 12:09 | 38.58411 | 99.18593 | 38178 ft | 388 kts | 294° |
| 2026-04-18 12:09 | 38.60982 | 99.12517 | 38172 ft | 388 kts | 294° |
| 2026-04-18 12:10 | 38.63548 | 99.06450 | 38166 ft | 388 kts | 294° |
| 2026-04-18 12:10 | 38.66115 | 99.00366 | 38170 ft | 389 kts | 294° |
| 2026-04-18 12:11 | 38.68682 | 98.94267 | 38167 ft | 390 kts | 294° |
| 2026-04-18 12:11 | 38.71255 | 98.88146 | 38171 ft | 391 kts | 294° |
| 2026-04-18 12:12 | 38.73827 | 98.82012 | 38158 ft | 391 kts | 294° |
| 2026-04-18 12:12 | 38.76396 | 98.75875 | 38129 ft | 391 kts | 294° |
| 2026-04-18 12:13 | 38.78958 | 98.69743 | 38141 ft | 391 kts | 294° |
| 2026-04-18 12:13 | 38.81526 | 98.63582 | 38142 ft | 392 kts | 294° |
| 2026-04-18 12:14 | 38.84093 | 98.57415 | 38145 ft | 392 kts | 294° |
| 2026-04-18 12:14 | 38.86659 | 98.51236 | 38120 ft | 393 kts | 294° |
| 2026-04-18 12:15 | 38.89206 | 98.45091 | 38138 ft | 392 kts | 294° |
| 2026-04-18 12:15 | 38.91759 | 98.38916 | 38137 ft | 392 kts | 294° |
| 2026-04-18 12:16 | 38.94309 | 98.32737 | 38140 ft | 391 kts | 294° |
| 2026-04-18 12:16 | 38.96853 | 98.26560 | 38132 ft | 391 kts | 294° |
| 2026-04-18 12:17 | 38.99390 | 98.20391 | 38138 ft | 390 kts | 294° |
| 2026-04-18 12:17 | 39.01916 | 98.14234 | 38141 ft | 389 kts | 294° |
| 2026-04-18 12:18 | 39.04436 | 98.08081 | 38145 ft | 389 kts | 294° |
| 2026-04-18 12:18 | 39.06950 | 98.01928 | 38153 ft | 388 kts | 294° |
| 2026-04-18 12:19 | 39.09461 | 97.95768 | 38165 ft | 388 kts | 294° |
| 2026-04-18 12:19 | 39.11947 | 97.89668 | 38175 ft | 384 kts | 295° |
| 2026-04-18 12:20 | 39.14425 | 97.83571 | 38188 ft | 387 kts | 294° |
| 2026-04-18 12:20 | 39.16928 | 97.77386 | 38169 ft | 389 kts | 294° |
| 2026-04-18 12:21 | 39.19428 | 97.71205 | 38162 ft | 388 kts | 294° |
| 2026-04-18 12:21 | 39.21913 | 97.65053 | 38176 ft | 386 kts | 294° |
| 2026-04-18 12:22 | 39.24388 | 97.58924 | 38179 ft | 384 kts | 294° |
| 2026-04-18 12:22 | 39.26857 | 97.52824 | 38188 ft | 383 kts | 294° |
| 2026-04-18 12:23 | 39.29315 | 97.46736 | 38192 ft | 382 kts | 294° |
| 2026-04-18 12:23 | 39.31751 | 97.40689 | 38187 ft | 381 kts | 294° |
| 2026-04-18 12:24 | 39.34194 | 97.34612 | 38213 ft | 382 kts | 294° |
| 2026-04-18 12:24 | 39.36638 | 97.28517 | 38205 ft | 382 kts | 294° |
| 2026-04-18 12:25 | 39.39083 | 97.22410 | 38215 ft | 382 kts | 294° |
| 2026-04-18 12:25 | 39.41524 | 97.16302 | 38217 ft | 382 kts | 294° |
| 2026-04-18 12:26 | 39.43957 | 97.10197 | 38205 ft | 382 kts | 294° |
| 2026-04-18 12:26 | 39.46383 | 97.04103 | 38212 ft | 381 kts | 294° |
| 2026-04-18 12:27 | 39.48815 | 96.98030 | 38235 ft | 379 kts | 294° |
| 2026-04-18 12:27 | 39.51251 | 96.91975 | 38227 ft | 378 kts | 294° |
| 2026-04-18 12:28 | 39.53680 | 96.85923 | 38224 ft | 378 kts | 294° |
| 2026-04-18 12:28 | 39.56099 | 96.79877 | 38226 ft | 378 kts | 294° |
| 2026-04-18 12:29 | 39.58510 | 96.73835 | 38221 ft | 377 kts | 294° |
| 2026-04-18 12:29 | 39.60911 | 96.67808 | 38228 ft | 376 kts | 294° |
| 2026-04-18 12:30 | 39.63307 | 96.61786 | 38227 ft | 375 kts | 295° |
| 2026-04-18 12:30 | 39.65717 | 96.55793 | 38243 ft | 375 kts | 295° |
| 2026-04-18 12:31 | 39.68133 | 96.49803 | 38236 ft | 374 kts | 295° |
| 2026-04-18 12:31 | 39.70538 | 96.43824 | 38244 ft | 373 kts | 295° |
| 2026-04-18 12:32 | 39.72930 | 96.37858 | 38252 ft | 372 kts | 295° |
| 2026-04-18 12:32 | 39.75297 | 96.31941 | 38233 ft | 371 kts | 295° |
| 2026-04-18 12:32 | 39.76489 | 96.28957 | 37979 ft | 372 kts | 295° |
| 2026-04-18 12:33 | 39.77679 | 96.25975 | 37712 ft | 370 kts | 295° |
| 2026-04-18 12:33 | 39.78863 | 96.23004 | 37445 ft | 371 kts | 295° |
| 2026-04-18 12:33 | 39.80052 | 96.20017 | 37179 ft | 373 kts | 295° |
| 2026-04-18 12:33 | 39.81247 | 96.17014 | 36919 ft | 375 kts | 295° |
| 2026-04-18 12:34 | 39.82446 | 96.13995 | 36654 ft | 377 kts | 295° |
| 2026-04-18 12:34 | 39.83650 | 96.10963 | 36408 ft | 378 kts | 294° |
| 2026-04-18 12:34 | 39.84450 | 96.08945 | 36239 ft | 379 kts | 294° |
| 2026-04-18 12:34 | 39.86067 | 96.04866 | 35907 ft | 380 kts | 294° |
| 2026-04-18 12:35 | 39.87283 | 96.01795 | 35653 ft | 381 kts | 294° |
| 2026-04-18 12:35 | 39.88497 | 95.98725 | 35404 ft | 382 kts | 294° |
| 2026-04-18 12:35 | 39.88770 | 95.98033 | 35350 ft | 383 kts | 294° |
| 2026-04-18 12:36 | 39.88773 | 95.98027 | 35348 ft | 383 kts | 294° |